Time;durP1;ratioP1;P1;durP2;ratioP2;P2;SDS_P1;SDS_P2;PMS_P1;PMS_P2;Temp;Humidity;BMP_temperature;BMP_pressure;BME280_temperature;BME280_humidity;BME280_pressure;Samples;Min_cycle;Max_cycle;Signal;HPM_P1;HPM_P2
2022/07/15 00:01:01;;;;;;;3.25;3.05;;;;;;;;;;5054636;28;20024;-66
2022/07/15 00:03:26;;;;;;;3.28;2.75;;;;;;;;;;5053929;28;20119;-65
2022/07/15 00:05:51;;;;;;;3.00;2.70;;;;;;;;;;5052707;28;20043;-66
2022/07/15 00:08:16;;;;;;;3.70;3.40;;;;;;;;;;5054624;28;20523;-65
2022/07/15 00:10:42;;;;;;;3.30;2.53;;;;;;;;;;5053859;28;20017;-66
2022/07/15 00:13:07;;;;;;;3.63;3.05;;;;;;;;;;5053256;28;20375;-66
2022/07/15 00:15:32;;;;;;;3.47;3.00;;;;;;;;;;5055518;28;20029;-66
2022/07/15 00:18:01;;;;;;;6.35;3.13;;;;;;;;;;5055075;28;20029;-66
2022/07/15 00:20:27;;;;;;;7.85;3.42;;;;;;;;;;5055625;28;20045;-65
2022/07/15 00:22:52;;;;;;;5.13;3.40;;;;;;;;;;5053631;28;20024;-65
2022/07/15 00:25:18;;;;;;;4.00;3.65;;;;;;;;;;5053883;28;20139;-66
2022/07/15 00:27:56;;;;;;;4.10;3.78;;;;;;;;;;5038780;28;20501;-66
2022/07/15 00:30:22;;;;;;;13.35;8.20;;;;;;;;;;5055588;28;20037;-66
2022/07/15 00:32:48;;;;;;;6.22;3.90;;;;;;;;;;5036774;28;20048;-65
2022/07/15 00:35:13;;;;;;;4.20;3.90;;;;;;;;;;5055268;28;20024;-65
2022/07/15 00:37:38;;;;;;;3.15;2.88;;;;;;;;;;5053565;28;20031;-65
2022/07/15 00:40:04;;;;;;;3.20;2.97;;;;;;;;;;5053715;28;20408;-65
2022/07/15 00:42:45;;;;;;;3.83;3.10;;;;;;;;;;5044211;28;20458;-66
2022/07/15 00:45:17;;;;;;;3.17;2.80;;;;;;;;;;5054306;28;20402;-66
2022/07/15 00:47:46;;;;;;;3.55;2.90;;;;;;;;;;5054237;28;20062;-65
2022/07/15 00:50:12;;;;;;;10.63;3.72;;;;;;;;;;5053645;28;20029;-66
2022/07/15 00:52:39;;;;;;;9.98;3.53;;;;;;;;;;5053134;28;20020;-65
2022/07/15 00:55:06;;;;;;;4.88;2.92;;;;;;;;;;5051402;28;20043;-65
2022/07/15 00:57:32;;;;;;;10.32;4.55;;;;;;;;;;5038832;28;20116;-66
2022/07/15 00:59:59;;;;;;;4.43;3.55;;;;;;;;;;5051710;28;20116;-65
2022/07/15 01:02:24;;;;;;;4.15;3.70;;;;;;;;;;5054186;28;20017;-65
2022/07/15 01:04:50;;;;;;;4.50;3.47;;;;;;;;;;5052604;28;20028;-65
2022/07/15 01:07:16;;;;;;;4.13;3.72;;;;;;;;;;5052870;28;20491;-65
2022/07/15 01:09:42;;;;;;;4.13;3.65;;;;;;;;;;5053082;28;20017;-65
2022/07/15 01:12:07;;;;;;;3.15;2.95;;;;;;;;;;5052371;28;20600;-66
2022/07/15 01:14:32;;;;;;;3.90;3.60;;;;;;;;;;5034257;28;20056;-67
2022/07/15 01:16:58;;;;;;;3.45;3.25;;;;;;;;;;5052892;28;20112;-64
2022/07/15 01:19:23;;;;;;;3.72;3.40;;;;;;;;;;5038461;28;20021;-64
2022/07/15 01:21:48;;;;;;;6.18;4.00;;;;;;;;;;5052368;28;20487;-66
2022/07/15 01:24:13;;;;;;;4.03;3.65;;;;;;;;;;5052812;28;20387;-66
2022/07/15 01:26:39;;;;;;;4.07;3.78;;;;;;;;;;5054097;28;20469;-66
2022/07/15 01:29:04;;;;;;;3.67;3.38;;;;;;;;;;5052751;28;20433;-64
2022/07/15 01:31:29;;;;;;;4.07;3.40;;;;;;;;;;5052645;28;20103;-67
2022/07/15 01:33:54;;;;;;;3.83;3.63;;;;;;;;;;5052172;28;20039;-66
2022/07/15 01:36:20;;;;;;;3.17;3.00;;;;;;;;;;5051904;28;20032;-66
2022/07/15 01:38:45;;;;;;;3.47;3.10;;;;;;;;;;5053402;28;20053;-66
2022/07/15 01:41:12;;;;;;;3.70;3.40;;;;;;;;;;5051284;28;20033;-66
2022/07/15 01:43:37;;;;;;;4.45;3.45;;;;;;;;;;5052466;28;20032;-64
2022/07/15 01:46:04;;;;;;;4.00;3.70;;;;;;;;;;5052271;28;20060;-65
2022/07/15 01:51:13;;;;;;;3.80;3.50;;;;;;;;;;5050978;28;20562;-65
2022/07/15 01:53:38;;;;;;;3.85;3.60;;;;;;;;;;5052565;28;20036;-66
2022/07/15 01:56:04;;;;;;;4.13;3.83;;;;;;;;;;5054029;28;20470;-66
2022/07/15 01:58:29;;;;;;;3.95;3.63;;;;;;;;;;5052237;28;20028;-66
2022/07/15 02:00:54;;;;;;;4.15;3.67;;;;;;;;;;5050682;28;20044;-66
2022/07/15 02:03:19;;;;;;;3.75;3.45;;;;;;;;;;5037050;28;20032;-65
2022/07/15 02:05:45;;;;;;;4.60;3.88;;;;;;;;;;5051756;28;20044;-65
2022/07/15 02:08:10;;;;;;;4.32;4.03;;;;;;;;;;5038218;28;20463;-66
2022/07/15 02:10:41;;;;;;;3.85;3.65;;;;;;;;;;5051544;28;20017;-66
2022/07/15 02:13:06;;;;;;;4.03;3.72;;;;;;;;;;5054708;28;20021;-65
2022/07/15 02:15:31;;;;;;;3.92;3.63;;;;;;;;;;5052047;28;20496;-65
2022/07/15 02:17:57;;;;;;;4.75;3.33;;;;;;;;;;5053636;28;20207;-65
2022/07/15 02:20:22;;;;;;;4.47;4.18;;;;;;;;;;5051569;28;20025;-66
2022/07/15 02:22:47;;;;;;;4.95;4.45;;;;;;;;;;5051663;28;20419;-65
2022/07/15 02:25:12;;;;;;;3.95;3.65;;;;;;;;;;5032602;28;20037;-66
2022/07/15 02:27:37;;;;;;;3.63;3.33;;;;;;;;;;5027264;28;20033;-65
2022/07/15 02:30:03;;;;;;;4.10;3.80;;;;;;;;;;5033484;28;20549;-65
2022/07/15 02:32:28;;;;;;;5.18;4.78;;;;;;;;;;5033784;28;20462;-66
2022/07/15 02:34:53;;;;;;;4.10;3.80;;;;;;;;;;5049988;28;20028;-66
2022/07/15 02:37:19;;;;;;;4.13;3.83;;;;;;;;;;5049647;28;20033;-65
2022/07/15 02:39:44;;;;;;;4.57;4.05;;;;;;;;;;5053185;28;20060;-66
2022/07/15 02:42:09;;;;;;;4.65;4.03;;;;;;;;;;5034305;28;20122;-65
2022/07/15 02:44:35;;;;;;;4.10;3.80;;;;;;;;;;5033418;28;20041;-65
2022/07/15 02:47:00;;;;;;;4.85;4.45;;;;;;;;;;5032429;28;20025;-65
2022/07/15 02:49:25;;;;;;;4.68;4.28;;;;;;;;;;5042393;28;20462;-65
2022/07/15 02:51:51;;;;;;;5.63;4.38;;;;;;;;;;5052262;28;20399;-66
2022/07/15 02:54:16;;;;;;;4.63;4.22;;;;;;;;;;5033854;28;20581;-65
2022/07/15 02:56:41;;;;;;;5.80;4.68;;;;;;;;;;5050338;28;20475;-67
2022/07/15 02:59:06;;;;;;;5.80;5.00;;;;;;;;;;5051963;28;20122;-65
2022/07/15 03:01:32;;;;;;;5.35;4.82;;;;;;;;;;5053565;28;20028;-65
2022/07/15 03:03:57;;;;;;;6.22;5.72;;;;;;;;;;5055808;28;20466;-65
2022/07/15 03:06:22;;;;;;;5.30;4.88;;;;;;;;;;5054759;28;20024;-67
2022/07/15 03:08:47;;;;;;;5.85;5.38;;;;;;;;;;5055538;28;20128;-66
2022/07/15 03:11:13;;;;;;;6.05;5.22;;;;;;;;;;5055549;28;20667;-65
2022/07/15 03:13:38;;;;;;;5.75;5.25;;;;;;;;;;5055872;28;20047;-65
2022/07/15 03:16:03;;;;;;;5.65;5.18;;;;;;;;;;5055555;28;20122;-65
2022/07/15 03:18:29;;;;;;;5.93;5.43;;;;;;;;;;5055526;28;20475;-65
2022/07/15 03:20:54;;;;;;;7.15;5.80;;;;;;;;;;5047660;28;20036;-66
2022/07/15 03:23:19;;;;;;;6.30;5.88;;;;;;;;;;5056252;28;20024;-65
2022/07/15 03:25:44;;;;;;;5.97;5.50;;;;;;;;;;5054368;28;20818;-65
2022/07/15 03:28:09;;;;;;;6.00;5.50;;;;;;;;;;5038237;28;20047;-65
2022/07/15 03:30:35;;;;;;;8.13;6.03;;;;;;;;;;5037663;28;20025;-65
2022/07/15 03:33:00;;;;;;;5.88;5.35;;;;;;;;;;5054511;28;20496;-65
2022/07/15 03:35:25;;;;;;;6.32;5.78;;;;;;;;;;5054892;28;20108;-66
2022/07/15 03:37:51;;;;;;;6.25;5.65;;;;;;;;;;5053784;28;20029;-65
2022/07/15 03:40:16;;;;;;;7.00;6.18;;;;;;;;;;5055797;28;20029;-66
2022/07/15 03:42:41;;;;;;;6.65;5.95;;;;;;;;;;5054503;28;20020;-65
2022/07/15 03:45:07;;;;;;;5.85;5.35;;;;;;;;;;5037000;28;20097;-65
2022/07/15 03:47:32;;;;;;;6.68;4.95;;;;;;;;;;5054401;28;20025;-65
2022/07/15 03:49:57;;;;;;;6.32;5.80;;;;;;;;;;5055759;28;20027;-65
2022/07/15 03:52:23;;;;;;;5.47;4.97;;;;;;;;;;5036925;28;20474;-66
2022/07/15 03:54:48;;;;;;;5.68;5.13;;;;;;;;;;5036422;28;20357;-66
2022/07/15 03:57:13;;;;;;;5.18;4.78;;;;;;;;;;5054527;28;20040;-66
2022/07/15 03:59:39;;;;;;;6.03;5.38;;;;;;;;;;5053433;28;20042;-65
2022/07/15 04:02:04;;;;;;;5.85;5.32;;;;;;;;;;5054436;28;20024;-65
2022/07/15 04:04:29;;;;;;;5.78;5.18;;;;;;;;;;5054936;28;20047;-67
2022/07/15 04:06:54;;;;;;;6.05;5.50;;;;;;;;;;5036049;28;20422;-65
2022/07/15 04:09:20;;;;;;;6.20;5.18;;;;;;;;;;5034556;28;20096;-65
2022/07/15 04:11:45;;;;;;;6.43;5.78;;;;;;;;;;5055742;28;20473;-66
2022/07/15 04:14:11;;;;;;;6.53;5.50;;;;;;;;;;5054378;28;20485;-65
2022/07/15 04:16:37;;;;;;;5.82;5.43;;;;;;;;;;5039067;28;20025;-65
2022/07/15 04:19:02;;;;;;;5.47;4.97;;;;;;;;;;5054847;28;20031;-65
2022/07/15 04:21:27;;;;;;;7.20;5.93;;;;;;;;;;5054681;28;20466;-65
2022/07/15 04:23:52;;;;;;;7.20;5.40;;;;;;;;;;5054850;28;20063;-65
2022/07/15 04:26:18;;;;;;;5.72;5.22;;;;;;;;;;5040124;28;20044;-65
2022/07/15 04:28:43;;;;;;;6.03;5.53;;;;;;;;;;5055094;28;20028;-65
2022/07/15 04:31:08;;;;;;;5.97;5.47;;;;;;;;;;5053158;28;20165;-65
2022/07/15 04:33:33;;;;;;;6.47;5.82;;;;;;;;;;5054644;28;20359;-65
2022/07/15 04:35:59;;;;;;;6.25;5.75;;;;;;;;;;5053626;28;20789;-64
2022/07/15 04:38:24;;;;;;;8.73;6.93;;;;;;;;;;5053496;28;20091;-65
2022/07/15 04:40:49;;;;;;;6.20;5.50;;;;;;;;;;5054536;28;20570;-65
2022/07/15 04:43:15;;;;;;;6.22;5.70;;;;;;;;;;5052843;28;20029;-64
2022/07/15 04:45:40;;;;;;;7.18;6.47;;;;;;;;;;5035663;28;20036;-64
2022/07/15 04:50:45;;;;;;;5.70;5.20;;;;;;;;;;5055205;28;20108;-64
2022/07/15 04:50:51;;;;;;;6.30;5.70;;;;;;;;;;5053816;28;20497;-63
2022/07/15 04:53:17;;;;;;;6.55;5.95;;;;;;;;;;5053711;28;20017;-64
2022/07/15 04:55:42;;;;;;;7.28;5.60;;;;;;;;;;5054745;28;20028;-65
2022/07/15 04:58:07;;;;;;;7.10;6.50;;;;;;;;;;5053269;28;20460;-65
2022/07/15 05:00:33;;;;;;;6.60;6.00;;;;;;;;;;5036877;28;20037;-65
2022/07/15 05:02:58;;;;;;;6.68;6.15;;;;;;;;;;5052125;28;20131;-65
2022/07/15 05:05:23;;;;;;;7.22;6.40;;;;;;;;;;5054026;28;20060;-65
2022/07/15 05:07:48;;;;;;;6.55;5.40;;;;;;;;;;5038432;28;20052;-65
2022/07/15 05:10:14;;;;;;;6.50;6.00;;;;;;;;;;5038906;28;20566;-65
2022/07/15 05:12:39;;;;;;;9.00;5.90;;;;;;;;;;5055128;28;20024;-65
2022/07/15 05:15:05;;;;;;;7.50;6.72;;;;;;;;;;5052689;28;20134;-66
2022/07/15 05:17:30;;;;;;;6.53;6.03;;;;;;;;;;5052666;28;20853;-65
2022/07/15 05:19:56;;;;;;;7.63;5.72;;;;;;;;;;5053629;28;20025;-66
2022/07/15 05:22:22;;;;;;;6.80;5.90;;;;;;;;;;5052423;28;20031;-67
2022/07/15 05:24:48;;;;;;;6.80;6.25;;;;;;;;;;5035795;28;20037;-65
2022/07/15 05:27:13;;;;;;;6.95;6.25;;;;;;;;;;5052962;28;20047;-66
2022/07/15 05:29:39;;;;;;;7.07;6.45;;;;;;;;;;5052264;28;20534;-65
2022/07/15 05:32:04;;;;;;;7.40;6.70;;;;;;;;;;5038692;28;20116;-66
2022/07/15 05:34:30;;;;;;;7.20;6.57;;;;;;;;;;5038180;28;20531;-66
2022/07/15 05:36:55;;;;;;;7.78;6.95;;;;;;;;;;5053520;28;20021;-65
2022/07/15 05:39:20;;;;;;;6.88;6.28;;;;;;;;;;5051110;28;20151;-66
2022/07/15 05:41:45;;;;;;;6.65;6.05;;;;;;;;;;5039378;28;20032;-65
2022/07/15 05:44:10;;;;;;;7.55;6.78;;;;;;;;;;5051886;28;20062;-65
2022/07/15 05:46:36;;;;;;;7.25;6.65;;;;;;;;;;5051515;28;20044;-66
2022/07/15 05:49:01;;;;;;;8.35;7.57;;;;;;;;;;5051189;28;20020;-65
2022/07/15 05:51:27;;;;;;;6.97;6.47;;;;;;;;;;5053280;28;20033;-67
2022/07/15 05:53:52;;;;;;;7.18;6.47;;;;;;;;;;5053398;28;20033;-65
2022/07/15 05:56:18;;;;;;;6.78;6.10;;;;;;;;;;5035806;28;20075;-64
2022/07/15 05:58:43;;;;;;;9.00;6.07;;;;;;;;;;5052454;28;20017;-65
2022/07/15 06:01:09;;;;;;;6.43;5.80;;;;;;;;;;5051406;28;20036;-64
2022/07/15 06:03:35;;;;;;;8.65;6.53;;;;;;;;;;5053896;28;20016;-65
2022/07/15 06:06:00;;;;;;;7.22;5.63;;;;;;;;;;5034999;28;20039;-65
2022/07/15 06:08:25;;;;;;;7.20;5.85;;;;;;;;;;5053401;28;20021;-65
2022/07/15 06:10:51;;;;;;;5.85;5.15;;;;;;;;;;5052898;28;20120;-65
2022/07/15 06:13:16;;;;;;;6.18;5.57;;;;;;;;;;5052117;28;20017;-65
2022/07/15 06:15:41;;;;;;;6.57;5.85;;;;;;;;;;5051131;28;20121;-65
2022/07/15 06:18:06;;;;;;;6.15;5.55;;;;;;;;;;5052343;28;20494;-66
2022/07/15 06:20:32;;;;;;;6.10;5.45;;;;;;;;;;5054102;28;20055;-68
2022/07/15 06:22:57;;;;;;;5.35;4.90;;;;;;;;;;5035330;28;20517;-66
2022/07/15 06:25:22;;;;;;;6.40;5.72;;;;;;;;;;5053480;28;20029;-66
2022/07/15 06:27:48;;;;;;;9.85;5.55;;;;;;;;;;5050572;28;20440;-66
2022/07/15 06:30:13;;;;;;;5.18;4.78;;;;;;;;;;5051951;28;20029;-65
2022/07/15 06:32:39;;;;;;;5.90;4.97;;;;;;;;;;5043075;28;20032;-65
2022/07/15 06:35:04;;;;;;;7.13;5.18;;;;;;;;;;5037730;28;20134;-65
2022/07/15 06:37:30;;;;;;;5.68;5.28;;;;;;;;;;5032583;28;20037;-66
2022/07/15 06:39:55;;;;;;;6.63;4.90;;;;;;;;;;5052204;28;20063;-65
2022/07/15 06:42:21;;;;;;;11.45;4.88;;;;;;;;;;5051586;28;20027;-66
2022/07/15 06:44:46;;;;;;;6.38;4.85;;;;;;;;;;5034675;28;20073;-66
2022/07/15 06:47:12;;;;;;;6.63;4.57;;;;;;;;;;5051811;28;20021;-64
2022/07/15 06:49:38;;;;;;;4.95;4.55;;;;;;;;;;5050450;28;20028;-65
2022/07/15 06:52:03;;;;;;;4.78;4.28;;;;;;;;;;5051709;28;20032;-65
2022/07/15 06:54:29;;;;;;;7.22;4.70;;;;;;;;;;5036400;28;20036;-65
2022/07/15 06:56:54;;;;;;;4.82;4.50;;;;;;;;;;5051677;28;20033;-65
2022/07/15 06:59:20;;;;;;;4.78;4.38;;;;;;;;;;5051956;28;20040;-65
2022/07/15 07:01:46;;;;;;;6.70;4.45;;;;;;;;;;5051309;28;20032;-65
2022/07/15 07:04:11;;;;;;;4.80;4.00;;;;;;;;;;5052359;28;20025;-65
2022/07/15 07:06:36;;;;;;;8.38;4.57;;;;;;;;;;5051613;28;20054;-65
2022/07/15 07:09:01;;;;;;;6.03;4.82;;;;;;;;;;5034661;28;20482;-66
2022/07/15 07:11:27;;;;;;;5.20;4.70;;;;;;;;;;5052736;28;20290;-64
2022/07/15 07:13:52;;;;;;;6.72;4.47;;;;;;;;;;5037140;28;20553;-64
2022/07/15 07:16:18;;;;;;;5.28;4.68;;;;;;;;;;5050763;28;20326;-64
2022/07/15 07:18:45;;;;;;;4.53;4.13;;;;;;;;;;5051933;28;20032;-64
2022/07/15 07:21:11;;;;;;;4.97;4.57;;;;;;;;;;5053623;28;20078;-64
2022/07/15 07:23:38;;;;;;;7.28;5.15;;;;;;;;;;5051150;28;20032;-65
2022/07/15 07:26:03;;;;;;;4.53;4.13;;;;;;;;;;5051351;28;20033;-66
2022/07/15 07:28:29;;;;;;;5.13;4.47;;;;;;;;;;5051554;28;20605;-64
2022/07/15 07:30:54;;;;;;;4.55;3.92;;;;;;;;;;5051434;28;20462;-65
2022/07/15 07:33:20;;;;;;;5.15;4.65;;;;;;;;;;5036040;28;20506;-65
2022/07/15 07:35:46;;;;;;;4.90;4.43;;;;;;;;;;5051610;28;20021;-65
2022/07/15 07:38:11;;;;;;;4.18;3.85;;;;;;;;;;5050827;28;20052;-65
2022/07/15 07:40:36;;;;;;;5.95;5.30;;;;;;;;;;5034342;28;20020;-64
2022/07/15 07:43:02;;;;;;;6.13;4.13;;;;;;;;;;5050990;28;20553;-66
2022/07/15 07:45:30;;;;;;;7.53;3.72;;;;;;;;;;5052109;28;20370;-65
2022/07/15 07:47:56;;;;;;;5.32;4.07;;;;;;;;;;5051463;28;20111;-64
2022/07/15 07:50:21;;;;;;;5.15;4.60;;;;;;;;;;5037646;28;20139;-66
2022/07/15 07:52:46;;;;;;;4.40;4.00;;;;;;;;;;5045762;28;20029;-66
2022/07/15 07:55:12;;;;;;;5.53;4.10;;;;;;;;;;5021900;28;20051;-67
2022/07/15 07:57:46;;;;;;;5.95;4.10;;;;;;;;;;5054606;28;20029;-66
2022/07/15 08:00:12;;;;;;;5.63;4.05;;;;;;;;;;5055736;28;20040;-64
2022/07/15 08:02:37;;;;;;;6.15;3.80;;;;;;;;;;5034588;28;20029;-65
2022/07/15 08:05:03;;;;;;;3.17;2.97;;;;;;;;;;5038611;28;20051;-65
2022/07/15 08:07:29;;;;;;;6.57;4.18;;;;;;;;;;5055301;28;20036;-64
2022/07/15 08:09:54;;;;;;;4.20;3.22;;;;;;;;;;5054659;28;20085;-65
2022/07/15 08:12:19;;;;;;;3.50;3.20;;;;;;;;;;5053722;28;20041;-65
2022/07/15 08:14:45;;;;;;;4.25;3.40;;;;;;;;;;5056053;28;20064;-65
2022/07/15 08:17:10;;;;;;;4.28;3.45;;;;;;;;;;5037269;28;20389;-66
2022/07/15 08:19:35;;;;;;;3.88;3.20;;;;;;;;;;5053754;28;20029;-65
2022/07/15 08:22:01;;;;;;;4.07;3.72;;;;;;;;;;5035564;28;20032;-65
2022/07/15 08:24:26;;;;;;;3.83;3.53;;;;;;;;;;5038825;28;20443;-65
2022/07/15 08:26:52;;;;;;;6.95;2.80;;;;;;;;;;5054065;28;20318;-66
2022/07/15 08:29:17;;;;;;;3.08;2.70;;;;;;;;;;5054634;28;20025;-66
2022/07/15 08:31:43;;;;;;;3.55;2.30;;;;;;;;;;5053778;28;20157;-65
2022/07/15 08:34:08;;;;;;;3.00;2.88;;;;;;;;;;5053313;28;20107;-65
2022/07/15 08:36:34;;;;;;;6.63;3.60;;;;;;;;;;5054101;28;20111;-66
2022/07/15 08:38:59;;;;;;;5.72;3.33;;;;;;;;;;5053058;28;20106;-66
2022/07/15 08:41:24;;;;;;;2.85;2.53;;;;;;;;;;5052845;28;20063;-65
2022/07/15 08:43:49;;;;;;;10.68;2.83;;;;;;;;;;5054808;28;20445;-65
2022/07/15 08:46:15;;;;;;;4.00;2.80;;;;;;;;;;5054984;28;20072;-65
2022/07/15 08:48:44;;;;;;;3.40;2.83;;;;;;;;;;5054051;28;20059;-67
2022/07/15 08:51:09;;;;;;;5.38;3.20;;;;;;;;;;5054663;28;20689;-66
2022/07/15 08:53:35;;;;;;;4.60;2.80;;;;;;;;;;5053228;28;20040;-65
2022/07/15 08:56:00;;;;;;;3.55;3.05;;;;;;;;;;5055055;28;20437;-65
2022/07/15 08:58:26;;;;;;;2.97;2.50;;;;;;;;;;5036150;28;20025;-66
2022/07/15 09:00:51;;;;;;;2.72;2.00;;;;;;;;;;5052401;28;20087;-66
2022/07/15 09:03:16;;;;;;;7.78;3.35;;;;;;;;;;5053904;28;20029;-64
2022/07/15 09:05:41;;;;;;;5.20;3.38;;;;;;;;;;5038224;28;20041;-65
2022/07/15 09:08:14;;;;;;;3.70;2.85;;;;;;;;;;5038085;28;20028;-66
2022/07/15 09:10:44;;;;;;;5.95;3.83;;;;;;;;;;5054099;28;20025;-66
2022/07/15 09:13:22;;;;;;;4.43;3.20;;;;;;;;;;5053788;28;20029;-66
2022/07/15 09:15:47;;;;;;;2.60;2.40;;;;;;;;;;5053783;28;20025;-68
2022/07/15 09:18:14;;;;;;;4.10;2.50;;;;;;;;;;5051693;28;20028;-66
2022/07/15 09:20:40;;;;;;;4.18;2.10;;;;;;;;;;5054420;28;20495;-66
2022/07/15 09:23:06;;;;;;;6.45;2.67;;;;;;;;;;5054329;28;20046;-66
2022/07/15 09:25:35;;;;;;;4.50;3.05;;;;;;;;;;5035680;28;20029;-66
2022/07/15 09:28:04;;;;;;;4.03;2.80;;;;;;;;;;5053060;28;20025;-66
2022/07/15 09:33:38;;;;;;;3.33;2.97;;;;;;;;;;5053329;28;20158;-65
2022/07/15 09:36:20;;;;;;;3.58;2.97;;;;;;;;;;5053464;28;20039;-65
2022/07/15 09:38:53;;;;;;;5.13;3.20;;;;;;;;;;5053314;28;20308;-65
2022/07/15 09:41:30;;;;;;;5.95;2.75;;;;;;;;;;5053052;28;20057;-65
2022/07/15 09:44:04;;;;;;;5.07;3.17;;;;;;;;;;5051951;28;20052;-65
2022/07/15 09:46:42;;;;;;;7.95;3.90;;;;;;;;;;5051995;28;20032;-65
2022/07/15 09:49:08;;;;;;;3.47;2.88;;;;;;;;;;5044721;28;20587;-65
2022/07/15 09:51:47;;;;;;;3.80;2.88;;;;;;;;;;5053581;28;20059;-65
2022/07/15 09:54:12;;;;;;;5.30;2.90;;;;;;;;;;5052010;28;20449;-65
2022/07/15 09:56:38;;;;;;;3.47;3.03;;;;;;;;;;5051690;28;20459;-66
2022/07/15 09:59:03;;;;;;;3.55;2.50;;;;;;;;;;5052426;28;20143;-65
2022/07/15 10:01:29;;;;;;;4.75;2.80;;;;;;;;;;5052800;28;20534;-65
2022/07/15 10:03:54;;;;;;;6.70;3.03;;;;;;;;;;5034327;28;20029;-65
2022/07/15 10:06:20;;;;;;;3.60;3.30;;;;;;;;;;5052226;28;20044;-65
2022/07/15 10:08:47;;;;;;;5.65;3.03;;;;;;;;;;5051952;28;20070;-65
2022/07/15 10:11:13;;;;;;;2.88;2.67;;;;;;;;;;5051073;28;20025;-68
2022/07/15 10:13:58;;;;;;;4.72;4.05;;;;;;;;;;5051709;28;20426;-65
2022/07/15 10:16:23;;;;;;;7.55;3.65;;;;;;;;;;5035548;28;20106;-65
2022/07/15 10:19:02;;;;;;;3.60;3.30;;;;;;;;;;5038194;28;20036;-65
2022/07/15 10:21:35;;;;;;;3.72;3.30;;;;;;;;;;5052007;28;20025;-65
2022/07/15 10:24:18;;;;;;;5.07;3.80;;;;;;;;;;5053007;28;20028;-65
2022/07/15 10:26:50;;;;;;;4.45;3.92;;;;;;;;;;5052149;28;20033;-65
2022/07/15 10:29:16;;;;;;;5.03;3.30;;;;;;;;;;5052188;28;20089;-65
2022/07/15 10:31:43;;;;;;;4.63;2.95;;;;;;;;;;5051297;28;20041;-66
2022/07/15 10:34:11;;;;;;;5.97;3.95;;;;;;;;;;5051314;28;20078;-66
2022/07/15 10:36:46;;;;;;;4.47;3.38;;;;;;;;;;5051332;28;20079;-65
2022/07/15 10:39:12;;;;;;;3.80;3.40;;;;;;;;;;5062830;28;20048;-66
2022/07/15 10:41:46;;;;;;;6.65;3.92;;;;;;;;;;5072226;28;20390;-66
2022/07/15 10:44:11;;;;;;;3.45;3.13;;;;;;;;;;5072142;28;20027;-66
2022/07/15 10:46:36;;;;;;;7.82;3.72;;;;;;;;;;5072243;28;20055;-65
2022/07/15 10:49:02;;;;;;;6.88;4.30;;;;;;;;;;5071647;28;20107;-66
2022/07/15 10:51:36;;;;;;;5.63;3.90;;;;;;;;;;5072443;28;20103;-65
2022/07/15 10:54:05;;;;;;;6.00;3.47;;;;;;;;;;5070127;28;20024;-64
2022/07/15 10:56:35;;;;;;;6.03;3.85;;;;;;;;;;5071047;28;20029;-65
2022/07/15 10:59:07;;;;;;;4.50;3.60;;;;;;;;;;5073211;28;20093;-65
2022/07/15 11:01:33;;;;;;;5.30;3.85;;;;;;;;;;5073022;28;20028;-65
2022/07/15 11:04:19;;;;;;;5.65;3.85;;;;;;;;;;5072545;28;20462;-65
2022/07/15 11:07:09;;;;;;;10.18;4.05;;;;;;;;;;5070699;28;20458;-65
2022/07/15 11:09:54;;;;;;;3.90;3.60;;;;;;;;;;5070753;28;20021;-65
2022/07/15 11:12:28;;;;;;;4.45;3.33;;;;;;;;;;5071471;28;20027;-65
2022/07/15 11:14:54;;;;;;;4.57;3.58;;;;;;;;;;5073185;28;20035;-65
2022/07/15 11:17:23;;;;;;;4.13;3.67;;;;;;;;;;5070584;28;20368;-65
2022/07/15 11:19:53;;;;;;;4.75;3.63;;;;;;;;;;5072333;28;20038;-66
2022/07/15 11:22:18;;;;;;;3.90;3.47;;;;;;;;;;5071720;28;20866;-66
2022/07/15 11:24:44;;;;;;;6.07;3.90;;;;;;;;;;5074796;28;20039;-65
2022/07/15 11:27:09;;;;;;;5.38;3.70;;;;;;;;;;5084156;28;20033;-66
2022/07/15 11:29:45;;;;;;;4.28;3.45;;;;;;;;;;5074803;28;20078;-66
2022/07/15 11:32:12;;;;;;;7.25;3.45;;;;;;;;;;5074666;28;20066;-65
2022/07/15 11:34:53;;;;;;;4.43;3.85;;;;;;;;;;5076563;28;20382;-66
2022/07/15 11:37:23;;;;;;;4.63;4.15;;;;;;;;;;5075605;28;20464;-66
2022/07/15 11:39:49;;;;;;;3.92;3.58;;;;;;;;;;5089893;28;20534;-66
2022/07/15 11:45:03;;;;;;;4.38;3.65;;;;;;;;;;5074593;28;20039;-66
2022/07/15 11:47:28;;;;;;;5.95;3.63;;;;;;;;;;5075668;28;20389;-65
2022/07/15 11:49:58;;;;;;;3.75;3.45;;;;;;;;;;5073393;28;20382;-65
2022/07/15 11:52:24;;;;;;;3.50;3.20;;;;;;;;;;5075571;28;20398;-66
2022/07/15 11:54:49;;;;;;;3.60;3.30;;;;;;;;;;5075900;28;20020;-65
2022/07/15 11:57:16;;;;;;;5.68;3.47;;;;;;;;;;5076177;28;20390;-65
2022/07/15 11:59:50;;;;;;;4.50;3.28;;;;;;;;;;5073228;28;20479;-65
2022/07/15 12:02:15;;;;;;;3.53;3.28;;;;;;;;;;5074445;28;20021;-65
2022/07/15 12:04:41;;;;;;;3.70;3.40;;;;;;;;;;5074134;28;20097;-65
2022/07/15 12:07:07;;;;;;;3.70;3.40;;;;;;;;;;5074595;28;20020;-65
2022/07/15 12:09:39;;;;;;;4.20;3.30;;;;;;;;;;5075312;28;20439;-65
2022/07/15 12:12:04;;;;;;;5.00;3.67;;;;;;;;;;5074373;28;20429;-66
2022/07/15 12:14:30;;;;;;;5.70;4.30;;;;;;;;;;5073171;28;20398;-65
2022/07/15 12:16:55;;;;;;;5.35;3.90;;;;;;;;;;5074967;28;20028;-66
2022/07/15 12:19:25;;;;;;;3.65;3.35;;;;;;;;;;5074084;28;20417;-66
2022/07/15 12:21:51;;;;;;;4.93;3.53;;;;;;;;;;5074343;28;20059;-66
2022/07/15 12:24:17;;;;;;;5.45;4.25;;;;;;;;;;5073778;28;20024;-66
2022/07/15 12:27:03;;;;;;;3.80;3.28;;;;;;;;;;5072896;28;20032;-67
2022/07/15 12:29:30;;;;;;;4.10;3.80;;;;;;;;;;5074505;28;20059;-66
2022/07/15 12:32:03;;;;;;;4.13;3.80;;;;;;;;;;5074259;28;20103;-67
2022/07/15 12:34:46;;;;;;;4.05;3.17;;;;;;;;;;5074998;28;20028;-66
2022/07/15 12:37:12;;;;;;;4.40;3.33;;;;;;;;;;5075491;28;20107;-67
2022/07/15 12:39:58;;;;;;;6.82;3.60;;;;;;;;;;5059520;28;20529;-66
2022/07/15 12:42:25;;;;;;;5.55;3.97;;;;;;;;;;5053257;28;20063;-66
2022/07/15 12:45:09;;;;;;;3.88;3.58;;;;;;;;;;5053438;28;20036;-66
2022/07/15 12:47:36;;;;;;;8.07;7.38;;;;;;;;;;5045436;28;20024;-67
2022/07/15 12:50:02;;;;;;;4.22;3.65;;;;;;;;;;5054003;28;20021;-66
2022/07/15 12:52:31;;;;;;;4.93;4.18;;;;;;;;;;5054873;28;20067;-66
2022/07/15 12:54:57;;;;;;;4.97;4.30;;;;;;;;;;5054226;28;20033;-65
2022/07/15 12:57:33;;;;;;;4.25;3.47;;;;;;;;;;5056377;28;20090;-66
2022/07/15 13:00:10;;;;;;;10.32;5.38;;;;;;;;;;5052419;28;20035;-66
2022/07/15 13:02:54;;;;;;;4.57;4.32;;;;;;;;;;5054529;28;20379;-66
2022/07/15 13:05:20;;;;;;;6.28;4.00;;;;;;;;;;5053807;28;20033;-66
2022/07/15 13:07:45;;;;;;;4.28;3.85;;;;;;;;;;5053169;28;20021;-66
2022/07/15 13:10:10;;;;;;;4.18;3.75;;;;;;;;;;5053283;28;20036;-66
2022/07/15 13:12:36;;;;;;;4.57;4.18;;;;;;;;;;5034598;28;20029;-66
2022/07/15 13:15:01;;;;;;;4.40;3.83;;;;;;;;;;5054012;28;20482;-66
2022/07/15 13:17:26;;;;;;;4.60;4.10;;;;;;;;;;5054517;28;20021;-67
2022/07/15 13:19:51;;;;;;;5.95;3.90;;;;;;;;;;5053957;28;20048;-66
2022/07/15 13:22:17;;;;;;;3.83;3.50;;;;;;;;;;5053982;28;20063;-66
2022/07/15 13:24:42;;;;;;;5.60;3.75;;;;;;;;;;5033623;28;20052;-66
2022/07/15 13:27:07;;;;;;;5.90;4.00;;;;;;;;;;5052873;28;20025;-67
2022/07/15 13:29:32;;;;;;;4.40;3.88;;;;;;;;;;5052937;28;20029;-66
2022/07/15 13:31:58;;;;;;;4.60;3.53;;;;;;;;;;5053337;28;20032;-66
2022/07/15 13:34:23;;;;;;;4.22;3.83;;;;;;;;;;5052953;28;20029;-66
2022/07/15 13:36:48;;;;;;;4.72;4.32;;;;;;;;;;5053889;28;20075;-66
2022/07/15 13:39:13;;;;;;;4.90;4.03;;;;;;;;;;5053420;28;20087;-66
2022/07/15 13:41:39;;;;;;;4.75;4.35;;;;;;;;;;5052692;28;20032;-67
2022/07/15 13:44:04;;;;;;;4.18;3.55;;;;;;;;;;5052258;28;20024;-67
2022/07/15 13:46:29;;;;;;;3.92;3.72;;;;;;;;;;5052818;28;20483;-66
2022/07/15 13:48:55;;;;;;;4.30;4.03;;;;;;;;;;5053122;28;20060;-66
2022/07/15 13:51:23;;;;;;;4.90;4.45;;;;;;;;;;5034803;28;20036;-65
2022/07/15 13:53:49;;;;;;;4.20;3.85;;;;;;;;;;5053884;28;20029;-67
2022/07/15 13:56:14;;;;;;;4.78;3.97;;;;;;;;;;5053423;28;20036;-66
2022/07/15 13:58:40;;;;;;;4.70;4.40;;;;;;;;;;5052497;28;20372;-66
2022/07/15 14:01:05;;;;;;;4.60;4.20;;;;;;;;;;5052817;28;20120;-66
2022/07/15 14:03:30;;;;;;;5.57;3.95;;;;;;;;;;5044770;28;20051;-66
2022/07/15 14:05:55;;;;;;;4.15;3.85;;;;;;;;;;5051588;28;20368;-66
2022/07/15 14:08:21;;;;;;;3.95;3.55;;;;;;;;;;5052952;28;20028;-66
2022/07/15 14:10:46;;;;;;;4.25;3.85;;;;;;;;;;5051431;28;20029;-66
2022/07/15 14:13:11;;;;;;;3.65;3.38;;;;;;;;;;5052353;28;20078;-66
2022/07/15 14:15:36;;;;;;;5.28;3.90;;;;;;;;;;5051907;28;20036;-66
2022/07/15 14:18:02;;;;;;;4.00;3.10;;;;;;;;;;5052472;28;20033;-66
2022/07/15 14:20:27;;;;;;;5.28;4.07;;;;;;;;;;5052929;28;20470;-66
2022/07/15 14:22:53;;;;;;;8.13;3.90;;;;;;;;;;5052283;28;20029;-65
2022/07/15 14:25:18;;;;;;;4.25;3.95;;;;;;;;;;5053071;28;20043;-67
2022/07/15 14:27:43;;;;;;;6.40;4.45;;;;;;;;;;5051386;28;20025;-65
2022/07/15 14:30:09;;;;;;;4.10;3.80;;;;;;;;;;5034318;28;20043;-67
2022/07/15 14:32:35;;;;;;;6.43;5.78;;;;;;;;;;5052760;28;20047;-67
2022/07/15 14:35:00;;;;;;;4.65;4.25;;;;;;;;;;5037400;28;20128;-68
2022/07/15 14:37:25;;;;;;;5.72;4.65;;;;;;;;;;5038867;28;20043;-66
2022/07/15 14:39:51;;;;;;;5.35;3.58;;;;;;;;;;5053614;28;20510;-66
2022/07/15 14:42:16;;;;;;;3.97;3.67;;;;;;;;;;5050958;28;20526;-66
2022/07/15 14:44:41;;;;;;;4.45;4.15;;;;;;;;;;5051717;28;20090;-66
2022/07/15 14:47:07;;;;;;;8.68;4.38;;;;;;;;;;5051524;28;20103;-66
2022/07/15 14:49:32;;;;;;;3.28;3.08;;;;;;;;;;5051891;28;20023;-67